Time;durP1;ratioP1;P1;durP2;ratioP2;P2;SDS_P1;SDS_P2;PMS_P1;PMS_P2;Temp;Humidity;BMP_temperature;BMP_pressure;BME280_temperature;BME280_humidity;BME280_pressure;Samples;Min_cycle;Max_cycle;Signal;HPM_P1;HPM_P2
2021/08/04 00:00:26;;;;;;;2.07;1.40;;;;;;;16.04;69.89;101460.84;3583583;39;20234;-83
2021/08/04 00:02:52;;;;;;;3.13;1.10;;;;;;;16.04;69.52;101459.97;3583587;39;20234;-81
2021/08/04 00:05:18;;;;;;;1.50;1.40;;;;;;;16.05;70.00;101462.56;3583935;39;20222;-86
2021/08/04 00:07:43;;;;;;;1.30;1.20;;;;;;;16.06;69.48;101461.69;3583835;39;20252;-84
2021/08/04 00:10:09;;;;;;;1.53;1.17;;;;;;;16.05;69.74;101459.09;3583307;39;20249;-84
2021/08/04 00:12:34;;;;;;;2.43;1.10;;;;;;;16.06;69.88;101458.25;3581703;39;20236;-83
2021/08/04 00:14:59;;;;;;;1.03;1.00;;;;;;;16.05;69.63;101454.81;3574070;40;20259;-83
2021/08/04 00:17:25;;;;;;;1.10;1.00;;;;;;;16.03;69.87;101458.25;3579667;39;20540;-83
2021/08/04 00:19:50;;;;;;;1.17;1.07;;;;;;;16.01;70.13;101460.81;3583942;39;20238;-84
2021/08/04 00:22:15;;;;;;;1.30;1.20;;;;;;;16.00;70.41;101458.22;3581481;39;20234;-83
2021/08/04 00:24:41;;;;;;;1.57;1.10;;;;;;;16.02;70.24;101465.13;3581609;39;20231;-84
2021/08/04 00:27:06;;;;;;;1.53;1.10;;;;;;;16.01;70.12;101458.22;3582337;39;20237;-84
2021/08/04 00:29:31;;;;;;;2.20;1.40;;;;;;;16.12;69.66;101458.31;3581727;40;20245;-84
2021/08/04 00:31:57;;;;;;;1.30;1.10;;;;;;;16.12;70.21;101459.16;3581956;40;20230;-84
2021/08/04 00:34:22;;;;;;;1.60;1.50;;;;;;;16.14;70.04;101459.16;3581750;39;20771;-86
2021/08/04 00:36:47;;;;;;;3.33;1.50;;;;;;;16.15;69.74;101463.47;3582124;39;20695;-85
2021/08/04 00:39:12;;;;;;;3.10;1.60;;;;;;;16.12;69.65;101468.63;3581436;39;20227;-83
2021/08/04 00:41:40;;;;;;;1.63;1.30;;;;;;;16.11;70.40;101461.75;3581878;39;20257;-83
2021/08/04 00:44:05;;;;;;;2.17;1.37;;;;;;;16.11;69.66;101465.19;3590072;39;20226;-84
2021/08/04 00:46:30;;;;;;;2.70;1.20;;;;;;;16.16;69.82;101463.50;3581308;39;20226;-82
2021/08/04 00:48:56;;;;;;;1.77;1.43;;;;;;;16.13;69.92;101458.31;3580054;40;20248;-83
2021/08/04 00:51:21;;;;;;;2.57;1.70;;;;;;;16.19;69.85;101463.53;3579900;40;20230;-82
2021/08/04 00:53:46;;;;;;;1.63;1.30;;;;;;;16.26;69.59;101454.09;3579999;40;20222;-83
2021/08/04 00:56:12;;;;;;;1.70;1.37;;;;;;;16.26;69.67;101451.50;3579775;40;20289;-82
2021/08/04 00:58:41;;;;;;;2.63;1.47;;;;;;;16.29;68.67;101454.09;3579184;40;20246;-82
2021/08/04 01:01:13;;;;;;;1.87;1.50;;;;;;;16.26;68.52;101451.50;3570136;40;20223;-83
2021/08/04 01:03:43;;;;;;;3.33;1.90;;;;;;;16.68;66.13;101442.28;3578538;40;20234;-82
2021/08/04 01:06:14;;;;;;;1.80;1.60;;;;;;;16.44;66.98;101444.72;3579621;40;20246;-81
2021/08/04 01:08:46;;;;;;;2.37;1.83;;;;;;;16.38;67.33;101447.25;3578840;40;20249;-82
2021/08/04 01:11:12;;;;;;;4.03;2.23;;;;;;;16.34;67.51;101449.84;3580284;40;20238;-82
2021/08/04 01:13:47;;;;;;;1.63;1.53;;;;;;;16.30;67.61;101458.44;3579145;40;20902;-83
2021/08/04 01:16:33;;;;;;;3.93;2.00;;;;;;;16.22;67.37;101450.63;3578759;40;20230;-82
2021/08/04 01:19:17;;;;;;;0.80;0.80;;;;;;;16.24;67.56;101453.19;3579280;40;20246;-81
2021/08/04 01:22:07;;;;;;;1.33;1.23;;;;;;;16.23;68.00;101459.22;3579071;40;20620;-83
2021/08/04 01:24:40;;;;;;;3.07;1.70;;;;;;;16.19;67.88;101458.34;3579354;40;20227;-83
2021/08/04 01:27:11;;;;;;;4.20;1.77;;;;;;;16.19;68.30;101453.19;3580945;40;20388;-82
2021/08/04 01:29:36;;;;;;;1.50;1.37;;;;;;;16.17;68.35;101461.78;3579950;40;20588;-83
2021/08/04 01:32:03;;;;;;;2.67;1.70;;;;;;;16.15;68.63;101451.44;3580299;40;20230;-84
2021/08/04 01:34:31;;;;;;;2.13;1.53;;;;;;;16.15;68.81;101460.88;3588180;40;20240;-84
2021/08/04 01:36:56;;;;;;;1.57;1.47;;;;;;;16.12;68.52;101453.97;3580360;40;20238;-83
2021/08/04 01:39:23;;;;;;;1.80;1.47;;;;;;;16.13;68.18;101458.31;3580218;40;20296;-84
2021/08/04 01:41:50;;;;;;;1.43;1.20;;;;;;;16.12;68.50;101455.72;3588217;39;20225;-83
2021/08/04 01:44:16;;;;;;;1.83;1.37;;;;;;;16.10;68.60;101449.66;3580554;40;20241;-85
2021/08/04 01:46:42;;;;;;;1.63;1.20;;;;;;;16.10;68.68;101460.88;3580192;40;20238;-82
2021/08/04 01:49:09;;;;;;;1.67;1.37;;;;;;;16.11;68.25;101454.00;3579997;40;20242;-83
2021/08/04 01:51:35;;;;;;;1.27;1.17;;;;;;;16.10;68.48;101454.81;3580894;40;20281;-83
2021/08/04 01:54:03;;;;;;;1.17;1.07;;;;;;;16.11;69.23;101449.69;3580431;40;20235;-82
2021/08/04 01:56:29;;;;;;;1.37;1.13;;;;;;;16.10;69.06;101447.94;3580537;40;20238;-82
2021/08/04 01:58:54;;;;;;;1.70;1.40;;;;;;;16.08;68.45;101453.97;3580621;39;20664;-83
2021/08/04 02:01:19;;;;;;;1.67;1.17;;;;;;;16.06;68.41;101451.38;3580858;39;20225;-83
2021/08/04 02:03:45;;;;;;;1.20;1.10;;;;;;;16.08;68.04;101452.25;3580692;40;20230;-85
2021/08/04 02:06:19;;;;;;;1.07;0.97;;;;;;;16.09;68.23;101447.94;3580631;39;20226;-85
2021/08/04 02:09:20;;;;;;;1.43;1.30;;;;;;;16.08;68.70;101438.47;3581180;40;20249;-85
2021/08/04 02:11:58;;;;;;;1.40;1.30;;;;;;;16.04;68.64;101445.34;3571491;40;20654;-83
2021/08/04 02:14:58;;;;;;;1.80;1.30;;;;;;;16.05;68.78;101435.84;3570852;40;20277;-83
2021/08/04 02:17:34;;;;;;;1.30;1.20;;;;;;;16.04;68.78;101440.16;3577771;40;20262;-83
2021/08/04 02:20:22;;;;;;;1.60;1.40;;;;;;;16.01;68.86;101434.09;3581000;39;20253;-84
2021/08/04 02:22:50;;;;;;;1.97;1.70;;;;;;;15.99;68.98;101433.22;3580897;39;20226;-85
2021/08/04 02:25:23;;;;;;;2.37;1.70;;;;;;;15.99;68.83;101436.69;3571402;40;20227;-85
2021/08/04 02:27:51;;;;;;;1.93;1.57;;;;;;;16.03;68.29;101433.25;3571108;40;20230;-85
2021/08/04 02:30:19;;;;;;;2.00;1.47;;;;;;;16.01;68.48;101422.06;3571019;40;20291;-84
2021/08/04 02:32:45;;;;;;;1.90;1.70;;;;;;;16.03;68.02;101416.91;3575947;39;20229;-85
2021/08/04 02:35:11;;;;;;;1.33;1.23;;;;;;;16.01;68.29;101427.22;3580844;39;20234;-84
2021/08/04 02:37:37;;;;;;;1.63;1.53;;;;;;;16.13;68.17;101423.84;3581187;39;20222;-84
2021/08/04 02:40:05;;;;;;;1.70;1.60;;;;;;;16.08;68.26;101425.53;3580566;39;20246;-84
2021/08/04 02:42:30;;;;;;;1.60;1.40;;;;;;;16.05;67.72;101428.97;3580954;39;20222;-85
2021/08/04 02:44:56;;;;;;;1.87;1.30;;;;;;;16.08;67.98;101423.84;3588140;39;20231;-85
2021/08/04 02:47:22;;;;;;;3.67;1.50;;;;;;;16.03;68.21;101427.25;3579883;40;21127;-81
2021/08/04 02:49:48;;;;;;;1.67;1.27;;;;;;;15.99;67.84;101423.78;3587248;40;20239;-83
2021/08/04 02:52:17;;;;;;;1.60;1.50;;;;;;;15.93;67.91;101425.44;3587512;40;20290;-83
2021/08/04 02:54:44;;;;;;;3.00;1.50;;;;;;;15.92;67.94;101429.75;3579200;40;20238;-83
2021/08/04 02:57:10;;;;;;;1.27;1.10;;;;;;;15.90;67.91;101426.28;3579901;39;20218;-83
2021/08/04 02:59:35;;;;;;;2.07;1.60;;;;;;;15.84;68.28;101423.66;3581048;39;20244;-87
2021/08/04 03:02:00;;;;;;;1.30;1.10;;;;;;;15.81;68.31;101422.75;3578411;40;20520;-82
2021/08/04 03:04:25;;;;;;;2.00;1.30;;;;;;;15.78;68.24;101422.72;3577852;40;20315;-83
2021/08/04 03:06:51;;;;;;;2.70;1.30;;;;;;;15.76;68.51;101427.91;3578779;40;20230;-83
2021/08/04 03:09:16;;;;;;;2.97;1.50;;;;;;;15.70;68.42;101427.84;3579491;40;20323;-83
2021/08/04 03:11:41;;;;;;;1.40;1.17;;;;;;;15.65;69.30;101433.84;3579305;40;20246;-84
2021/08/04 03:14:07;;;;;;;1.47;1.33;;;;;;;15.61;68.89;101439.81;3579028;40;20278;-82
2021/08/04 03:16:32;;;;;;;1.43;1.20;;;;;;;15.62;68.97;101444.13;3579053;40;20281;-82
2021/08/04 03:18:57;;;;;;;1.93;1.47;;;;;;;15.57;69.11;101440.66;3578591;40;20238;-84
2021/08/04 03:21:22;;;;;;;2.17;1.17;;;;;;;15.59;68.59;101439.81;3579022;40;20219;-81
2021/08/04 03:23:48;;;;;;;2.07;1.10;;;;;;;15.59;68.54;101442.38;3578450;40;20227;-84
2021/08/04 03:26:13;;;;;;;1.70;1.30;;;;;;;15.62;68.65;101441.56;3578379;40;20246;-82
2021/08/04 03:28:38;;;;;;;1.80;1.43;;;;;;;15.68;68.36;101437.31;3578705;40;20242;-83
2021/08/04 03:31:04;;;;;;;2.43;1.60;;;;;;;15.77;67.90;101439.97;3580375;39;20237;-83
2021/08/04 03:33:29;;;;;;;1.40;1.30;;;;;;;15.93;66.70;101440.94;3579006;40;20241;-84
2021/08/04 03:35:54;;;;;;;1.50;1.40;;;;;;;15.86;67.06;101450.38;3573165;40;20230;-83
2021/08/04 03:38:19;;;;;;;1.80;1.40;;;;;;;15.81;67.37;101444.31;3569652;40;20235;-82
2021/08/04 03:40:45;;;;;;;2.30;1.33;;;;;;;15.73;68.23;101450.25;3579962;40;20214;-83
2021/08/04 03:43:10;;;;;;;1.73;1.33;;;;;;;15.68;68.67;101450.22;3579714;40;20549;-83
2021/08/04 03:45:35;;;;;;;1.47;1.33;;;;;;;15.66;68.58;101445.91;3579204;40;20226;-83
2021/08/04 03:48:01;;;;;;;3.83;1.20;;;;;;;15.65;68.35;101451.91;3580261;40;20228;-83
2021/08/04 03:50:26;;;;;;;1.70;1.30;;;;;;;15.65;68.85;101447.59;3579754;40;20314;-83
2021/08/04 03:52:52;;;;;;;2.30;1.37;;;;;;;15.64;68.53;101448.47;3570095;40;20633;-85
2021/08/04 03:55:17;;;;;;;1.20;1.07;;;;;;;15.67;69.05;101443.34;3569597;40;20231;-80
2021/08/04 03:57:42;;;;;;;1.20;1.10;;;;;;;15.71;68.62;101439.91;3571106;40;20235;-83
2021/08/04 04:00:10;;;;;;;2.17;1.40;;;;;;;15.78;68.08;101441.69;3570767;40;20250;-82
2021/08/04 04:02:35;;;;;;;2.60;1.50;;;;;;;15.83;68.33;101436.53;3571078;40;20290;-84
2021/08/04 04:05:00;;;;;;;1.67;1.30;;;;;;;15.78;68.68;101441.69;3571460;40;20231;-82
2021/08/04 04:07:25;;;;;;;1.70;1.30;;;;;;;15.74;68.36;101428.75;3571584;40;20234;-84
2021/08/04 04:09:50;;;;;;;1.67;1.47;;;;;;;15.73;68.63;101442.50;3571833;40;20246;-83
2021/08/04 04:12:16;;;;;;;2.03;0.90;;;;;;;15.76;68.73;101447.69;3571725;40;20223;-83
2021/08/04 04:14:41;;;;;;;1.67;1.23;;;;;;;15.74;68.47;101437.34;3571371;40;20600;-85
2021/08/04 04:17:06;;;;;;;1.47;1.10;;;;;;;15.77;68.54;101445.13;3571382;40;20243;-81
2021/08/04 04:19:32;;;;;;;1.47;1.00;;;;;;;15.79;68.00;101438.25;3578090;40;20259;-83
2021/08/04 04:21:57;;;;;;;1.77;1.17;;;;;;;15.84;67.22;101443.47;3571403;40;20278;-83
2021/08/04 04:24:22;;;;;;;1.13;1.03;;;;;;;15.82;67.32;101446.03;3575149;40;20231;-84
2021/08/04 04:26:48;;;;;;;1.57;1.43;;;;;;;15.82;67.59;101450.31;3580395;40;20233;-83
2021/08/04 04:29:13;;;;;;;2.03;1.40;;;;;;;15.78;67.37;101452.03;3580194;40;20261;-82
2021/08/04 04:31:39;;;;;;;1.00;0.87;;;;;;;15.84;67.21;101456.38;3580251;40;20292;-82
2021/08/04 04:34:04;;;;;;;1.83;1.20;;;;;;;15.85;66.74;101458.97;3588995;40;20235;-84
2021/08/04 04:36:30;;;;;;;1.60;0.90;;;;;;;15.90;66.87;101465.03;3580613;40;20233;-84
2021/08/04 04:38:55;;;;;;;2.30;1.30;;;;;;;15.91;67.16;101466.75;3580226;40;20234;-83
2021/08/04 04:41:20;;;;;;;0.97;0.97;;;;;;;15.94;66.98;101473.66;3581424;40;20230;-84
2021/08/04 04:43:46;;;;;;;1.30;1.10;;;;;;;15.95;67.64;101471.09;3581113;40;20233;-83
2021/08/04 04:46:11;;;;;;;1.87;1.37;;;;;;;15.96;67.66;101465.06;3581010;40;20233;-82
2021/08/04 04:48:36;;;;;;;1.67;1.03;;;;;;;15.98;67.69;101457.34;3580140;40;20253;-82
2021/08/04 04:51:02;;;;;;;1.27;1.10;;;;;;;15.99;67.61;101469.41;3580458;40;20218;-82
2021/08/04 04:53:27;;;;;;;1.33;1.10;;;;;;;16.03;67.20;101469.41;3579528;40;20290;-82
2021/08/04 04:55:53;;;;;;;1.33;1.23;;;;;;;16.06;67.23;101473.75;3579127;40;20643;-83
2021/08/04 04:58:18;;;;;;;1.93;1.50;;;;;;;16.10;67.01;101471.22;3579047;40;20235;-83
2021/08/04 05:00:44;;;;;;;1.97;1.30;;;;;;;16.15;66.54;101471.22;3579895;40;20242;-83
2021/08/04 05:03:09;;;;;;;1.70;1.40;;;;;;;16.23;65.72;101477.31;3580719;40;20218;-85
2021/08/04 05:05:34;;;;;;;1.93;1.40;;;;;;;16.33;65.00;101471.34;3580566;40;20234;-82
2021/08/04 05:08:00;;;;;;;2.70;1.50;;;;;;;16.38;64.44;101474.81;3579970;40;20231;-82
2021/08/04 05:10:25;;;;;;;1.60;1.30;;;;;;;16.36;65.94;101480.00;3579769;40;20244;-84
2021/08/04 05:12:50;;;;;;;1.17;1.07;;;;;;;16.36;65.88;101476.53;3580728;40;20210;-82
2021/08/04 05:15:15;;;;;;;1.70;1.60;;;;;;;16.39;65.27;101482.59;3580356;40;20222;-84
2021/08/04 05:17:41;;;;;;;1.63;1.43;;;;;;;16.38;65.44;101477.41;3588394;40;20242;-85
2021/08/04 05:20:07;;;;;;;2.63;1.40;;;;;;;16.44;65.52;101482.66;3588645;40;20881;-82
2021/08/04 05:22:32;;;;;;;1.93;1.60;;;;;;;16.43;65.81;101476.63;3587906;40;20231;-84
2021/08/04 05:24:58;;;;;;;1.83;1.40;;;;;;;16.53;65.54;101477.56;3579831;40;20229;-83
2021/08/04 05:27:23;;;;;;;1.50;1.20;;;;;;;16.54;64.78;101480.13;3579044;40;20235;-81
2021/08/04 05:29:48;;;;;;;2.43;1.60;;;;;;;16.73;64.28;101478.50;3574980;40;20234;-84
2021/08/04 05:32:14;;;;;;;1.50;1.07;;;;;;;16.71;64.09;101475.06;3581624;39;20231;-85
2021/08/04 05:34:39;;;;;;;1.30;1.20;;;;;;;16.73;63.73;101487.16;3581343;40;20282;-84
2021/08/04 05:37:04;;;;;;;1.83;1.33;;;;;;;16.80;63.88;101488.88;3588795;39;20598;-83
2021/08/04 05:39:29;;;;;;;1.43;1.20;;;;;;;16.87;63.21;101484.59;3580002;40;20625;-84
2021/08/04 05:41:55;;;;;;;1.70;1.60;;;;;;;16.99;62.76;101482.91;3579507;40;20230;-83
2021/08/04 05:44:20;;;;;;;2.73;1.30;;;;;;;16.97;63.10;101488.94;3579825;40;20242;-84
2021/08/04 05:46:45;;;;;;;1.40;1.30;;;;;;;17.01;63.21;101488.09;3580199;40;20210;-85
2021/08/04 05:49:11;;;;;;;1.40;1.00;;;;;;;17.01;63.15;101482.94;3577477;40;20246;-82
2021/08/04 05:51:36;;;;;;;1.83;1.50;;;;;;;16.99;63.18;101487.25;3579453;40;20234;-87
2021/08/04 05:54:01;;;;;;;1.80;1.67;;;;;;;17.14;62.50;101482.13;3580205;40;20231;-82
2021/08/04 05:56:27;;;;;;;2.77;1.73;;;;;;;17.11;62.64;101485.56;3581079;40;20245;-85
2021/08/04 05:58:52;;;;;;;1.73;1.30;;;;;;;17.11;63.18;101487.28;3580404;39;20241;-84
2021/08/04 06:01:17;;;;;;;1.77;1.37;;;;;;;17.07;63.41;101490.72;3580985;39;20281;-83
2021/08/04 06:03:42;;;;;;;3.33;1.70;;;;;;;17.16;63.09;101493.31;3580796;40;20237;-85
2021/08/04 06:06:09;;;;;;;2.73;1.60;;;;;;;17.33;62.54;101494.25;3580297;39;20215;-83
2021/08/04 06:08:35;;;;;;;1.43;1.20;;;;;;;17.35;62.88;101501.16;3580069;40;20243;-81
2021/08/04 06:11:00;;;;;;;2.83;1.73;;;;;;;17.30;62.80;101504.59;3580212;40;20237;-83
2021/08/04 06:13:25;;;;;;;1.40;1.27;;;;;;;17.28;63.04;101507.19;3581203;39;20225;-84
2021/08/04 06:15:53;;;;;;;1.43;1.33;;;;;;;17.34;63.40;101516.69;3581010;39;20215;-83
2021/08/04 06:18:18;;;;;;;1.43;1.17;;;;;;;17.37;63.55;101506.34;3579501;39;20227;-83
2021/08/04 06:20:44;;;;;;;2.10;1.53;;;;;;;17.54;62.97;101505.53;3580194;40;20225;-84
2021/08/04 06:23:09;;;;;;;2.40;1.57;;;;;;;17.70;61.72;101512.50;3580101;40;20218;-84
2021/08/04 06:25:34;;;;;;;1.80;1.33;;;;;;;17.69;62.74;101515.91;3580540;39;20234;-84
2021/08/04 06:28:00;;;;;;;4.03;1.70;;;;;;;17.86;61.78;101516.81;3575760;40;20238;-83
2021/08/04 06:30:25;;;;;;;1.70;1.40;;;;;;;18.01;61.42;101511.63;3569246;40;20635;-83
2021/08/04 06:32:50;;;;;;;2.93;1.80;;;;;;;18.03;60.99;101509.91;3567447;40;20239;-83
2021/08/04 06:35:16;;;;;;;1.93;1.50;;;;;;;17.96;62.40;101513.34;3569370;40;20230;-83
2021/08/04 06:37:41;;;;;;;2.03;1.80;;;;;;;18.16;61.10;101511.63;3571148;40;20271;-84
2021/08/04 06:40:07;;;;;;;2.20;1.50;;;;;;;18.27;60.93;101504.69;3570441;40;20247;-86
2021/08/04 06:42:33;;;;;;;2.30;1.17;;;;;;;18.44;60.52;101510.78;3571172;40;20308;-83
2021/08/04 06:44:58;;;;;;;5.23;1.60;;;;;;;18.37;60.87;101505.59;3570702;40;20230;-82
2021/08/04 06:47:23;;;;;;;1.60;1.50;;;;;;;18.35;60.70;101508.19;3570724;40;20230;-84
2021/08/04 06:49:48;;;;;;;2.60;1.60;;;;;;;18.58;60.45;101514.19;3570709;40;20243;-84
2021/08/04 06:52:14;;;;;;;2.00;1.57;;;;;;;18.62;60.98;101508.13;3570889;40;20275;-83
2021/08/04 06:54:39;;;;;;;3.70;1.77;;;;;;;18.64;60.99;101516.75;3570726;40;20226;-83
2021/08/04 06:57:04;;;;;;;2.43;1.53;;;;;;;18.81;60.63;101516.72;3570778;40;20228;-83
2021/08/04 06:59:30;;;;;;;3.07;1.63;;;;;;;19.01;60.45;101514.91;3570319;40;20242;-83
2021/08/04 07:01:55;;;;;;;3.33;1.70;;;;;;;19.24;59.03;101516.56;3570229;40;20215;-85
2021/08/04 07:04:20;;;;;;;3.80;1.80;;;;;;;19.62;57.80;101516.34;3570145;40;20260;-85
2021/08/04 07:06:52;;;;;;;5.47;1.90;;;;;;;19.79;56.74;101509.28;3570229;40;20231;-83
2021/08/04 07:09:17;;;;;;;2.77;1.60;;;;;;;19.54;57.67;101510.34;3570198;40;20269;-83
2021/08/04 07:11:43;;;;;;;2.40;1.60;;;;;;;19.28;58.81;101515.69;3570331;40;20240;-84
2021/08/04 07:14:08;;;;;;;2.60;1.97;;;;;;;19.31;58.44;101520.88;3572175;39;20226;-84
2021/08/04 07:16:33;;;;;;;1.60;1.47;;;;;;;19.36;59.02;101524.31;3580746;40;20649;-84
2021/08/04 07:18:58;;;;;;;3.07;1.70;;;;;;;19.32;59.49;101522.59;3580273;40;20238;-81
2021/08/04 07:21:24;;;;;;;2.83;1.70;;;;;;;19.38;58.79;101529.47;3577791;39;20227;-84
2021/08/04 07:23:49;;;;;;;2.53;1.50;;;;;;;19.34;59.44;101527.78;3578275;39;20237;-84
2021/08/04 07:26:14;;;;;;;4.23;1.87;;;;;;;19.56;58.31;101524.16;3580131;39;20594;-83
2021/08/04 07:28:39;;;;;;;2.20;1.80;;;;;;;19.72;58.57;101523.22;3580086;40;20230;-84
2021/08/04 07:31:05;;;;;;;3.87;1.73;;;;;;;19.79;57.56;101522.28;3580770;39;20291;-82
2021/08/04 07:33:31;;;;;;;1.90;1.77;;;;;;;19.67;58.87;101525.81;3581556;39;20257;-84
2021/08/04 07:35:56;;;;;;;2.33;1.67;;;;;;;19.55;59.94;101523.31;3581908;39;20242;-83
2021/08/04 07:38:21;;;;;;;4.00;2.00;;;;;;;19.45;59.56;101523.38;3581744;40;20238;-83
2021/08/04 07:40:46;;;;;;;2.23;1.60;;;;;;;19.50;60.34;101530.28;3581459;40;20650;-84
2021/08/04 07:43:12;;;;;;;1.90;1.70;;;;;;;19.59;59.53;101525.03;3581476;40;20222;-83
2021/08/04 07:45:37;;;;;;;3.23;1.90;;;;;;;19.76;59.35;101525.75;3581448;40;20227;-84
2021/08/04 07:48:03;;;;;;;2.43;1.70;;;;;;;20.01;58.50;101521.25;3581809;39;20226;-84
2021/08/04 07:50:28;;;;;;;2.17;1.97;;;;;;;20.02;58.63;101522.97;3581148;39;20278;-83
2021/08/04 07:52:53;;;;;;;2.97;1.90;;;;;;;20.37;57.69;101520.94;3581648;39;20251;-82
2021/08/04 07:55:19;;;;;;;2.40;1.83;;;;;;;20.28;57.52;101523.66;3581466;40;20293;-84
2021/08/04 07:57:45;;;;;;;2.77;1.97;;;;;;;20.34;58.24;101515.78;3581890;40;20285;-84
2021/08/04 08:00:10;;;;;;;2.33;1.90;;;;;;;20.21;58.59;101522.84;3581347;39;20697;-84
2021/08/04 08:02:36;;;;;;;2.37;2.03;;;;;;;20.37;58.73;101521.84;3581428;39;20301;-84
2021/08/04 08:05:01;;;;;;;2.37;2.10;;;;;;;20.70;57.12;101518.88;3581625;40;20223;-85
2021/08/04 08:07:26;;;;;;;2.63;2.00;;;;;;;21.00;56.48;101517.69;3581801;39;20222;-84
2021/08/04 08:09:52;;;;;;;2.13;1.93;;;;;;;20.83;57.60;101522.19;3581921;39;20248;-83
2021/08/04 08:12:17;;;;;;;2.77;1.97;;;;;;;20.79;58.04;101520.50;3581993;39;20646;-85
2021/08/04 08:14:43;;;;;;;1.90;1.70;;;;;;;20.86;57.81;101515.19;3579967;39;20231;-85
2021/08/04 08:17:08;;;;;;;2.40;2.00;;;;;;;21.21;56.01;101517.41;3577113;39;20231;-84
2021/08/04 08:19:33;;;;;;;2.47;2.07;;;;;;;21.28;55.90;101519.06;3581666;39;20296;-83
2021/08/04 08:21:59;;;;;;;2.67;2.23;;;;;;;21.69;53.74;101514.16;3576365;39;20239;-85
2021/08/04 08:24:25;;;;;;;2.80;2.17;;;;;;;21.48;55.40;101510.09;3581929;39;20238;-85
2021/08/04 08:26:50;;;;;;;1.87;1.70;;;;;;;21.41;55.51;101511.03;3582017;39;20269;-85
2021/08/04 08:29:16;;;;;;;3.53;1.83;;;;;;;21.79;54.57;101515.72;3578470;39;20330;-84
2021/08/04 08:31:41;;;;;;;3.50;2.20;;;;;;;21.90;55.22;101516.41;3581360;39;20234;-85
2021/08/04 08:34:07;;;;;;;3.40;2.03;;;;;;;22.25;52.25;101503.66;3581833;39;20941;-83
2021/08/04 08:36:34;;;;;;;4.13;1.83;;;;;;;22.18;53.26;101502.00;3581696;39;20226;-83
2021/08/04 08:39:01;;;;;;;4.13;2.13;;;;;;;22.30;52.20;101513.09;3581085;39;20246;-83
2021/08/04 08:41:27;;;;;;;2.63;1.90;;;;;;;22.31;52.78;101506.13;3580863;39;20231;-84
2021/08/04 08:43:55;;;;;;;3.13;2.07;;;;;;;22.64;51.92;101508.16;3581520;39;20523;-84
2021/08/04 08:46:26;;;;;;;2.70;2.10;;;;;;;23.02;50.58;101504.78;3581035;40;20218;-83
2021/08/04 08:48:52;;;;;;;4.03;2.10;;;;;;;23.21;49.72;101508.75;3589689;39;20255;-83
2021/08/04 08:51:19;;;;;;;4.10;2.33;;;;;;;23.27;49.32;101506.00;3581296;39;20219;-84
2021/08/04 08:53:45;;;;;;;2.80;2.27;;;;;;;23.35;48.18;101501.47;3581295;39;20234;-83
2021/08/04 08:56:14;;;;;;;2.73;2.03;;;;;;;22.81;51.15;101505.22;3580855;40;20222;-83
2021/08/04 08:58:40;;;;;;;4.13;2.20;;;;;;;22.65;52.54;101511.63;3579746;40;20258;-81
2021/08/04 09:01:05;;;;;;;3.07;1.97;;;;;;;22.88;51.29;101506.81;3580368;39;20242;-82
2021/08/04 09:03:30;;;;;;;4.47;2.17;;;;;;;22.71;50.80;101508.91;3580938;39;20267;-81
2021/08/04 09:05:57;;;;;;;2.77;1.90;;;;;;;22.46;51.95;101507.66;3580921;40;20238;-81
2021/08/04 09:08:31;;;;;;;2.33;2.13;;;;;;;22.70;50.16;101513.25;3581209;39;20227;-82
2021/08/04 09:11:08;;;;;;;3.65;2.10;;;;;;;22.70;50.24;101507.19;3580833;40;20222;-84
2021/08/04 09:13:35;;;;;;;3.80;2.03;;;;;;;22.55;50.41;101507.47;3581292;39;20222;-81
2021/08/04 09:16:09;;;;;;;2.63;2.17;;;;;;;22.08;52.33;101508.28;3575605;40;20227;-83
2021/08/04 09:18:52;;;;;;;2.60;1.90;;;;;;;22.17;53.13;101506.38;3589423;39;20250;-81
2021/08/04 09:21:18;;;;;;;4.10;2.10;;;;;;;22.25;51.28;101501.03;3575476;39;20226;-83
2021/08/04 09:23:49;;;;;;;3.47;1.90;;;;;;;22.55;50.58;101505.72;3580811;39;20221;-83
2021/08/04 09:26:17;;;;;;;3.57;2.10;;;;;;;22.87;49.17;101499.84;3580885;39;20269;-82
2021/08/04 09:29:05;;;;;;;3.43;2.30;;;;;;;22.88;49.61;101502.44;3580857;39;20242;-83
2021/08/04 09:31:39;;;;;;;1.80;1.60;;;;;;;22.73;50.97;101499.25;3581289;39;20281;-83
2021/08/04 09:34:25;;;;;;;2.57;1.97;;;;;;;22.74;50.85;101491.41;3581416;39;20684;-83
2021/08/04 09:37:01;;;;;;;2.67;1.83;;;;;;;22.78;51.29;101497.44;3580509;39;20454;-81
2021/08/04 09:39:27;;;;;;;3.10;1.97;;;;;;;22.84;50.64;101495.53;3580691;39;20227;-84
2021/08/04 09:41:52;;;;;;;3.33;1.70;;;;;;;22.78;52.26;101500.91;3580414;40;20231;-85
2021/08/04 09:44:18;;;;;;;2.55;1.67;;;;;;;23.06;51.67;101496.00;3581177;40;20231;-83
2021/08/04 09:46:43;;;;;;;3.30;2.20;;;;;;;23.49;48.60;101487.19;3581044;39;20223;-84
2021/08/04 09:49:13;;;;;;;2.07;1.77;;;;;;;23.22;50.75;101498.28;3581113;39;20668;-82
2021/08/04 09:51:39;;;;;;;2.10;1.90;;;;;;;23.26;51.54;101493.84;3581404;39;20222;-82
2021/08/04 09:54:11;;;;;;;2.30;1.80;;;;;;;23.17;52.07;101499.22;3588501;39;20233;-83
2021/08/04 09:56:53;;;;;;;4.00;1.92;;;;;;;23.39;50.76;101492.66;3580883;40;20225;-84
2021/08/04 09:59:21;;;;;;;3.13;2.00;;;;;;;23.77;49.38;101487.41;3580988;39;20663;-83
2021/08/04 10:01:46;;;;;;;2.15;1.70;;;;;;;23.61;51.14;101484.28;3580575;40;20246;-81
2021/08/04 10:04:13;;;;;;;2.50;1.60;;;;;;;23.72;50.92;101486.66;3580534;39;20243;-82
2021/08/04 10:06:40;;;;;;;3.38;1.90;;;;;;;24.00;49.93;101483.34;3580167;40;20226;-82
2021/08/04 10:09:09;;;;;;;2.15;1.67;;;;;;;23.99;51.41;101472.91;3579892;40;20267;-82
2021/08/04 10:11:38;;;;;;;2.65;1.70;;;;;;;24.02;49.96;101472.81;3578345;40;20226;-85
2021/08/04 10:14:03;;;;;;;1.70;1.60;;;;;;;24.31;51.03;101472.94;3585806;39;20238;-84
2021/08/04 10:16:32;;;;;;;1.90;1.70;;;;;;;24.86;48.46;101470.53;3578407;39;20832;-86
2021/08/04 10:18:58;;;;;;;3.10;1.88;;;;;;;25.07;48.96;101462.03;3571285;40;20247;-83
2021/08/04 10:21:24;;;;;;;3.13;1.77;;;;;;;25.22;49.10;101464.19;3565789;40;20238;-81
2021/08/04 10:23:51;;;;;;;2.72;2.00;;;;;;;25.53;46.96;101463.22;3571026;40;20227;-83
2021/08/04 10:26:17;;;;;;;2.95;1.95;;;;;;;25.63;47.28;101469.03;3578939;39;20755;-83
2021/08/04 10:28:44;;;;;;;3.20;1.60;;;;;;;25.79;46.56;101457.97;3580690;39;20270;-84
2021/08/04 10:31:11;;;;;;;2.22;1.80;;;;;;;25.80;48.04;101454.47;3581147;39;20244;-83
2021/08/04 10:33:41;;;;;;;2.30;1.77;;;;;;;26.13;45.61;101457.72;3581319;39;20239;-84
2021/08/04 10:36:12;;;;;;;1.77;1.58;;;;;;;26.21;45.14;101453.06;3581211;39;20238;-84
2021/08/04 10:38:43;;;;;;;2.38;1.60;;;;;;;26.17;45.87;101462.84;3580359;40;20243;-84
2021/08/04 10:41:16;;;;;;;1.95;1.60;;;;;;;26.25;45.14;101449.44;3580327;40;20219;-82
2021/08/04 10:43:45;;;;;;;2.15;1.10;;;;;;;26.16;45.53;101449.75;3580298;39;20218;-86
2021/08/04 10:46:32;;;;;;;2.10;1.63;;;;;;;26.24;45.77;101450.34;3580971;39;20949;-83
2021/08/04 10:49:11;;;;;;;1.90;1.60;;;;;;;26.30;43.40;101447.50;3578306;39;20322;-83
2021/08/04 10:51:43;;;;;;;3.28;1.92;;;;;;;26.32;42.71;101449.16;3580248;39;20250;-85
2021/08/04 10:54:17;;;;;;;2.30;1.65;;;;;;;26.22;46.20;101446.91;3580411;40;20237;-82
2021/08/04 10:56:42;;;;;;;3.58;1.83;;;;;;;26.43;44.47;101441.72;3580140;39;20237;-84
2021/08/04 10:59:07;;;;;;;2.08;1.45;;;;;;;26.52;46.03;101440.56;3580814;40;20242;-85
2021/08/04 11:01:33;;;;;;;2.72;1.95;;;;;;;26.99;41.99;101437.03;3579768;39;20621;-84
2021/08/04 11:03:58;;;;;;;1.70;1.60;;;;;;;26.80;43.08;101434.25;3580764;40;20265;-83
2021/08/04 11:06:24;;;;;;;1.70;1.60;;;;;;;26.87;43.06;101433.09;3580983;40;20297;-84
2021/08/04 11:09:11;;;;;;;2.10;1.40;;;;;;;27.31;41.83;101426.97;3580363;39;20235;-81
2021/08/04 11:11:50;;;;;;;2.80;1.58;;;;;;;27.44;41.61;101420.31;3579433;40;20269;-82
2021/08/04 11:14:39;;;;;;;2.97;1.88;;;;;;;27.74;40.79;101415.56;3580180;39;20230;-83
2021/08/04 11:17:06;;;;;;;2.67;1.73;;;;;;;27.59;40.94;101417.03;3580855;39;20226;-83
2021/08/04 11:19:34;;;;;;;1.92;1.70;;;;;;;27.62;39.54;101416.94;3579696;39;20288;-83
2021/08/04 11:22:17;;;;;;;1.95;1.58;;;;;;;27.11;41.09;101412.88;3574411;40;20238;-82
2021/08/04 11:25:00;;;;;;;2.42;1.73;;;;;;;27.44;40.59;101412.41;3580154;40;20223;-83